sensor_id;sensor_type;location;lat;lon;timestamp;P1;durP1;ratioP1;P2;durP2;ratioP2
22646;SDS011;11490;42.726;23.268;2023-02-15T00:00:17;24.90;;;11.20;;
22646;SDS011;11490;42.726;23.268;2023-02-15T00:02:46;21.30;;;12.35;;
22646;SDS011;11490;42.726;23.268;2023-02-15T00:05:17;21.77;;;12.77;;
22646;SDS011;11490;42.726;23.268;2023-02-15T00:11:26;24.30;;;11.73;;
22646;SDS011;11490;42.726;23.268;2023-02-15T00:37:22;19.67;;;10.90;;
22646;SDS011;11490;42.726;23.268;2023-02-15T00:39:47;18.20;;;11.48;;
22646;SDS011;11490;42.726;23.268;2023-02-15T02:09:30;14.80;;;9.82;;
22646;SDS011;11490;42.726;23.268;2023-02-15T03:23:42;16.70;;;9.98;;
22646;SDS011;11490;42.726;23.268;2023-02-15T04:07:56;18.90;;;11.75;;
22646;SDS011;11490;42.726;23.268;2023-02-15T04:20:29;13.85;;;9.68;;
22646;SDS011;11490;42.726;23.268;2023-02-15T04:23:13;18.70;;;11.10;;
22646;SDS011;11490;42.726;23.268;2023-02-15T04:26:02;20.58;;;11.55;;
22646;SDS011;11490;42.726;23.268;2023-02-15T04:32:46;17.92;;;10.73;;
22646;SDS011;11490;42.726;23.268;2023-02-15T04:35:14;23.25;;;11.07;;
22646;SDS011;11490;42.726;23.268;2023-02-15T04:37:49;20.77;;;10.35;;
22646;SDS011;11490;42.726;23.268;2023-02-15T04:40:16;18.77;;;9.98;;
22646;SDS011;11490;42.726;23.268;2023-02-15T04:42:42;18.80;;;11.85;;
22646;SDS011;11490;42.726;23.268;2023-02-15T04:45:09;19.60;;;11.25;;
22646;SDS011;11490;42.726;23.268;2023-02-15T04:47:34;19.80;;;11.85;;
22646;SDS011;11490;42.726;23.268;2023-02-15T04:50:00;17.92;;;12.02;;
22646;SDS011;11490;42.726;23.268;2023-02-15T04:52:35;18.70;;;11.13;;
22646;SDS011;11490;42.726;23.268;2023-02-15T04:55:01;19.80;;;12.73;;
22646;SDS011;11490;42.726;23.268;2023-02-15T05:01:00;20.45;;;11.65;;
22646;SDS011;11490;42.726;23.268;2023-02-15T05:03:26;16.45;;;10.27;;
22646;SDS011;11490;42.726;23.268;2023-02-15T05:05:51;22.45;;;11.57;;
22646;SDS011;11490;42.726;23.268;2023-02-15T05:08:22;20.52;;;11.63;;
22646;SDS011;11490;42.726;23.268;2023-02-15T05:10:50;17.98;;;11.20;;
22646;SDS011;11490;42.726;23.268;2023-02-15T05:13:16;21.50;;;10.43;;
22646;SDS011;11490;42.726;23.268;2023-02-15T05:15:45;17.58;;;10.75;;
22646;SDS011;11490;42.726;23.268;2023-02-15T05:18:20;17.77;;;10.85;;
22646;SDS011;11490;42.726;23.268;2023-02-15T05:20:47;17.55;;;10.10;;
22646;SDS011;11490;42.726;23.268;2023-02-15T05:23:13;22.80;;;11.85;;
22646;SDS011;11490;42.726;23.268;2023-02-15T05:25:39;21.67;;;12.18;;
22646;SDS011;11490;42.726;23.268;2023-02-15T05:28:25;17.27;;;10.45;;
22646;SDS011;11490;42.726;23.268;2023-02-15T05:33:53;17.95;;;11.02;;
22646;SDS011;11490;42.726;23.268;2023-02-15T05:36:18;16.55;;;10.82;;
22646;SDS011;11490;42.726;23.268;2023-02-15T05:38:44;18.90;;;10.52;;
22646;SDS011;11490;42.726;23.268;2023-02-15T05:41:10;26.88;;;14.52;;
22646;SDS011;11490;42.726;23.268;2023-02-15T06:00:39;21.20;;;10.75;;
22646;SDS011;11490;42.726;23.268;2023-02-15T06:16:53;18.40;;;10.98;;
22646;SDS011;11490;42.726;23.268;2023-02-15T06:19:37;21.40;;;11.52;;
22646;SDS011;11490;42.726;23.268;2023-02-15T06:22:05;18.90;;;11.07;;
22646;SDS011;11490;42.726;23.268;2023-02-15T06:24:56;20.38;;;11.63;;
22646;SDS011;11490;42.726;23.268;2023-02-15T06:30:38;13.10;;;8.95;;
22646;SDS011;11490;42.726;23.268;2023-02-15T06:35:51;14.32;;;9.55;;
22646;SDS011;11490;42.726;23.268;2023-02-15T06:38:19;18.65;;;12.13;;
22646;SDS011;11490;42.726;23.268;2023-02-15T07:22:42;22.27;;;12.13;;
22646;SDS011;11490;42.726;23.268;2023-02-15T07:25:26;23.02;;;13.63;;
22646;SDS011;11490;42.726;23.268;2023-02-15T07:28:32;16.00;;;8.95;;
22646;SDS011;11490;42.726;23.268;2023-02-15T07:31:06;18.83;;;11.20;;
22646;SDS011;11490;42.726;23.268;2023-02-15T07:33:32;24.42;;;12.48;;
22646;SDS011;11490;42.726;23.268;2023-02-15T07:36:15;19.27;;;10.88;;
22646;SDS011;11490;42.726;23.268;2023-02-15T07:39:01;15.40;;;9.10;;
22646;SDS011;11490;42.726;23.268;2023-02-15T07:41:33;18.88;;;9.90;;
22646;SDS011;11490;42.726;23.268;2023-02-15T07:44:16;20.70;;;11.10;;
22646;SDS011;11490;42.726;23.268;2023-02-15T07:47:14;17.42;;;9.20;;
22646;SDS011;11490;42.726;23.268;2023-02-15T07:49:50;14.95;;;10.00;;
22646;SDS011;11490;42.726;23.268;2023-02-15T07:52:23;23.02;;;11.25;;
22646;SDS011;11490;42.726;23.268;2023-02-15T07:55:05;18.80;;;9.65;;
22646;SDS011;11490;42.726;23.268;2023-02-15T07:57:33;16.48;;;8.77;;
22646;SDS011;11490;42.726;23.268;2023-02-15T07:59:59;13.73;;;8.73;;
22646;SDS011;11490;42.726;23.268;2023-02-15T08:02:25;17.20;;;9.95;;
22646;SDS011;11490;42.726;23.268;2023-02-15T08:04:50;15.43;;;10.23;;
22646;SDS011;11490;42.726;23.268;2023-02-15T08:07:18;18.33;;;10.23;;
22646;SDS011;11490;42.726;23.268;2023-02-15T08:09:43;16.58;;;10.15;;
22646;SDS011;11490;42.726;23.268;2023-02-15T08:12:08;16.92;;;10.00;;
22646;SDS011;11490;42.726;23.268;2023-02-15T08:14:34;19.05;;;9.23;;
22646;SDS011;11490;42.726;23.268;2023-02-15T08:17:01;16.20;;;10.20;;
22646;SDS011;11490;42.726;23.268;2023-02-15T08:19:30;21.08;;;10.98;;
22646;SDS011;11490;42.726;23.268;2023-02-15T08:21:59;21.90;;;11.20;;
22646;SDS011;11490;42.726;23.268;2023-02-15T08:24:38;19.80;;;10.40;;
22646;SDS011;11490;42.726;23.268;2023-02-15T08:27:05;15.50;;;10.40;;
22646;SDS011;11490;42.726;23.268;2023-02-15T08:29:33;12.77;;;8.90;;
22646;SDS011;11490;42.726;23.268;2023-02-15T08:32:05;22.63;;;12.23;;
22646;SDS011;11490;42.726;23.268;2023-02-15T08:34:33;17.33;;;8.75;;
22646;SDS011;11490;42.726;23.268;2023-02-15T08:37:01;12.73;;;9.07;;
22646;SDS011;11490;42.726;23.268;2023-02-15T08:39:27;24.08;;;11.27;;
22646;SDS011;11490;42.726;23.268;2023-02-15T08:41:58;18.30;;;10.80;;
22646;SDS011;11490;42.726;23.268;2023-02-15T08:44:24;19.27;;;9.98;;
22646;SDS011;11490;42.726;23.268;2023-02-15T08:46:49;13.20;;;8.35;;
22646;SDS011;11490;42.726;23.268;2023-02-15T08:49:16;20.83;;;10.55;;
22646;SDS011;11490;42.726;23.268;2023-02-15T08:51:43;17.73;;;9.30;;
22646;SDS011;11490;42.726;23.268;2023-02-15T08:54:11;18.17;;;9.40;;
22646;SDS011;11490;42.726;23.268;2023-02-15T08:56:39;13.80;;;10.10;;
22646;SDS011;11490;42.726;23.268;2023-02-15T08:59:05;16.50;;;8.98;;
22646;SDS011;11490;42.726;23.268;2023-02-15T09:01:33;16.45;;;9.70;;
22646;SDS011;11490;42.726;23.268;2023-02-15T09:04:01;19.58;;;10.68;;
22646;SDS011;11490;42.726;23.268;2023-02-15T09:06:33;12.77;;;8.55;;
22646;SDS011;11490;42.726;23.268;2023-02-15T09:08:59;22.77;;;12.43;;
22646;SDS011;11490;42.726;23.268;2023-02-15T09:11:26;15.65;;;9.75;;
22646;SDS011;11490;42.726;23.268;2023-02-15T09:13:57;14.68;;;10.35;;
22646;SDS011;11490;42.726;23.268;2023-02-15T09:16:28;18.67;;;10.90;;
22646;SDS011;11490;42.726;23.268;2023-02-15T09:18:55;14.43;;;9.15;;
22646;SDS011;11490;42.726;23.268;2023-02-15T09:21:22;15.98;;;9.25;;
22646;SDS011;11490;42.726;23.268;2023-02-15T09:23:50;10.90;;;7.22;;
22646;SDS011;11490;42.726;23.268;2023-02-15T09:26:20;15.55;;;9.95;;
22646;SDS011;11490;42.726;23.268;2023-02-15T09:28:47;13.68;;;8.63;;
22646;SDS011;11490;42.726;23.268;2023-02-15T09:31:17;16.55;;;9.48;;
22646;SDS011;11490;42.726;23.268;2023-02-15T09:33:45;24.45;;;10.60;;
22646;SDS011;11490;42.726;23.268;2023-02-15T09:38:40;17.20;;;9.95;;
22646;SDS011;11490;42.726;23.268;2023-02-15T09:41:13;17.50;;;10.15;;
22646;SDS011;11490;42.726;23.268;2023-02-15T09:49:09;18.83;;;11.48;;
22646;SDS011;11490;42.726;23.268;2023-02-15T09:51:50;17.05;;;10.80;;
22646;SDS011;11490;42.726;23.268;2023-02-15T09:54:28;20.60;;;11.57;;
22646;SDS011;11490;42.726;23.268;2023-02-15T09:57:10;14.40;;;8.25;;
22646;SDS011;11490;42.726;23.268;2023-02-15T10:02:38;12.57;;;9.20;;
22646;SDS011;11490;42.726;23.268;2023-02-15T10:11:15;15.55;;;8.82;;
22646;SDS011;11490;42.726;23.268;2023-02-15T10:22:27;18.25;;;9.98;;
22646;SDS011;11490;42.726;23.268;2023-02-15T10:28:09;19.38;;;11.27;;
22646;SDS011;11490;42.726;23.268;2023-02-15T10:33:56;16.65;;;10.07;;
22646;SDS011;11490;42.726;23.268;2023-02-15T10:39:24;16.33;;;10.50;;
22646;SDS011;11490;42.726;23.268;2023-02-15T10:50:32;18.15;;;9.98;;
22646;SDS011;11490;42.726;23.268;2023-02-15T11:00:41;18.58;;;9.45;;
22646;SDS011;11490;42.726;23.268;2023-02-15T11:03:19;22.58;;;9.18;;
22646;SDS011;11490;42.726;23.268;2023-02-15T11:08:18;18.48;;;10.90;;
22646;SDS011;11490;42.726;23.268;2023-02-15T11:13:25;15.85;;;10.57;;
22646;SDS011;11490;42.726;23.268;2023-02-15T11:22:12;19.27;;;11.20;;
22646;SDS011;11490;42.726;23.268;2023-02-15T11:24:42;18.88;;;11.32;;
22646;SDS011;11490;42.726;23.268;2023-02-15T11:27:16;19.92;;;12.18;;
22646;SDS011;11490;42.726;23.268;2023-02-15T11:29:59;23.63;;;11.63;;
22646;SDS011;11490;42.726;23.268;2023-02-15T11:34:57;21.40;;;11.20;;
22646;SDS011;11490;42.726;23.268;2023-02-15T11:37:29;17.13;;;10.93;;
22646;SDS011;11490;42.726;23.268;2023-02-15T11:40:02;25.92;;;10.13;;
22646;SDS011;11490;42.726;23.268;2023-02-15T11:42:39;15.35;;;9.55;;
22646;SDS011;11490;42.726;23.268;2023-02-15T11:47:46;28.00;;;9.90;;
22646;SDS011;11490;42.726;23.268;2023-02-15T11:50:15;18.95;;;11.48;;
22646;SDS011;11490;42.726;23.268;2023-02-15T11:52:43;16.08;;;9.82;;
22646;SDS011;11490;42.726;23.268;2023-02-15T11:55:18;15.98;;;10.32;;
22646;SDS011;11490;42.726;23.268;2023-02-15T12:00:39;15.80;;;9.18;;
22646;SDS011;11490;42.726;23.268;2023-02-15T12:03:32;16.85;;;9.25;;
22646;SDS011;11490;42.726;23.268;2023-02-15T12:06:04;19.23;;;11.80;;
22646;SDS011;11490;42.726;23.268;2023-02-15T12:08:38;15.70;;;9.48;;
22646;SDS011;11490;42.726;23.268;2023-02-15T12:11:12;16.58;;;9.85;;
22646;SDS011;11490;42.726;23.268;2023-02-15T12:13:53;19.48;;;9.80;;
22646;SDS011;11490;42.726;23.268;2023-02-15T12:16:21;23.67;;;10.57;;
22646;SDS011;11490;42.726;23.268;2023-02-15T12:18:47;19.60;;;10.18;;
22646;SDS011;11490;42.726;23.268;2023-02-15T12:21:24;13.25;;;8.70;;
22646;SDS011;11490;42.726;23.268;2023-02-15T12:23:52;17.30;;;10.85;;
22646;SDS011;11490;42.726;23.268;2023-02-15T12:26:24;19.52;;;12.23;;
22646;SDS011;11490;42.726;23.268;2023-02-15T12:28:50;23.77;;;9.35;;
22646;SDS011;11490;42.726;23.268;2023-02-15T12:33:50;20.42;;;11.93;;
22646;SDS011;11490;42.726;23.268;2023-02-15T12:36:20;17.75;;;11.07;;
22646;SDS011;11490;42.726;23.268;2023-02-15T12:41:28;13.52;;;9.38;;
22646;SDS011;11490;42.726;23.268;2023-02-15T12:44:04;17.67;;;9.95;;
22646;SDS011;11490;42.726;23.268;2023-02-15T12:49:41;16.38;;;9.73;;
22646;SDS011;11490;42.726;23.268;2023-02-15T12:54:45;17.45;;;11.20;;
22646;SDS011;11490;42.726;23.268;2023-02-15T12:57:30;17.25;;;9.82;;
22646;SDS011;11490;42.726;23.268;2023-02-15T13:02:45;23.60;;;10.25;;
22646;SDS011;11490;42.726;23.268;2023-02-15T13:07:52;15.48;;;9.40;;
22646;SDS011;11490;42.726;23.268;2023-02-15T13:10:25;19.55;;;9.68;;
22646;SDS011;11490;42.726;23.268;2023-02-15T13:12:53;20.55;;;9.50;;
22646;SDS011;11490;42.726;23.268;2023-02-15T13:17:51;14.27;;;8.25;;
22646;SDS011;11490;42.726;23.268;2023-02-15T13:20:20;15.95;;;9.10;;
22646;SDS011;11490;42.726;23.268;2023-02-15T13:22:50;21.35;;;10.85;;
22646;SDS011;11490;42.726;23.268;2023-02-15T13:25:30;17.73;;;11.02;;
22646;SDS011;11490;42.726;23.268;2023-02-15T13:28:04;14.82;;;9.55;;
22646;SDS011;11490;42.726;23.268;2023-02-15T13:30:38;14.93;;;9.35;;
22646;SDS011;11490;42.726;23.268;2023-02-15T13:33:23;19.50;;;11.38;;
22646;SDS011;11490;42.726;23.268;2023-02-15T13:52:20;15.38;;;9.55;;
22646;SDS011;11490;42.726;23.268;2023-02-15T14:00:44;20.95;;;11.05;;
22646;SDS011;11490;42.726;23.268;2023-02-15T14:03:55;23.92;;;12.07;;
22646;SDS011;11490;42.726;23.268;2023-02-15T14:15:02;23.02;;;12.68;;
22646;SDS011;11490;42.726;23.268;2023-02-15T14:17:47;16.75;;;10.95;;
22646;SDS011;11490;42.726;23.268;2023-02-15T14:32:42;16.98;;;10.73;;
22646;SDS011;11490;42.726;23.268;2023-02-15T14:35:18;21.58;;;12.30;;
22646;SDS011;11490;42.726;23.268;2023-02-15T14:49:23;20.67;;;11.13;;
22646;SDS011;11490;42.726;23.268;2023-02-15T15:06:06;25.52;;;11.45;;
22646;SDS011;11490;42.726;23.268;2023-02-15T15:08:37;19.45;;;12.20;;
22646;SDS011;11490;42.726;23.268;2023-02-15T15:13:57;22.33;;;12.52;;
22646;SDS011;11490;42.726;23.268;2023-02-15T15:19:03;19.15;;;12.85;;
22646;SDS011;11490;42.726;23.268;2023-02-15T15:49:05;28.33;;;14.65;;
22646;SDS011;11490;42.726;23.268;2023-02-15T15:51:40;19.35;;;11.10;;
22646;SDS011;11490;42.726;23.268;2023-02-15T15:54:11;19.05;;;11.02;;
22646;SDS011;11490;42.726;23.268;2023-02-15T15:56:41;18.92;;;11.20;;
22646;SDS011;11490;42.726;23.268;2023-02-15T15:59:12;29.35;;;12.52;;
22646;SDS011;11490;42.726;23.268;2023-02-15T16:01:45;18.92;;;13.05;;
22646;SDS011;11490;42.726;23.268;2023-02-15T16:04:22;22.45;;;13.95;;
22646;SDS011;11490;42.726;23.268;2023-02-15T16:06:50;26.73;;;13.48;;
22646;SDS011;11490;42.726;23.268;2023-02-15T16:09:23;24.05;;;11.90;;
22646;SDS011;11490;42.726;23.268;2023-02-15T16:11:57;23.35;;;13.07;;
22646;SDS011;11490;42.726;23.268;2023-02-15T16:14:37;20.95;;;12.00;;
22646;SDS011;11490;42.726;23.268;2023-02-15T16:17:15;117.18;;;23.85;;
22646;SDS011;11490;42.726;23.268;2023-02-15T16:19:44;16.75;;;11.15;;
22646;SDS011;11490;42.726;23.268;2023-02-15T16:22:15;22.83;;;12.65;;
22646;SDS011;11490;42.726;23.268;2023-02-15T16:27:41;29.27;;;11.50;;
22646;SDS011;11490;42.726;23.268;2023-02-15T16:30:24;20.17;;;12.18;;
22646;SDS011;11490;42.726;23.268;2023-02-15T16:35:57;23.35;;;13.35;;
22646;SDS011;11490;42.726;23.268;2023-02-15T16:41:11;22.65;;;13.68;;
22646;SDS011;11490;42.726;23.268;2023-02-15T16:43:43;25.13;;;13.20;;
22646;SDS011;11490;42.726;23.268;2023-02-15T16:46:15;27.67;;;13.85;;
22646;SDS011;11490;42.726;23.268;2023-02-15T16:48:45;32.60;;;17.00;;
22646;SDS011;11490;42.726;23.268;2023-02-15T16:51:34;28.45;;;14.70;;
22646;SDS011;11490;42.726;23.268;2023-02-15T16:54:02;26.90;;;14.02;;
22646;SDS011;11490;42.726;23.268;2023-02-15T16:56:31;26.20;;;15.70;;
22646;SDS011;11490;42.726;23.268;2023-02-15T16:58:57;23.88;;;15.10;;
22646;SDS011;11490;42.726;23.268;2023-02-15T17:01:25;31.58;;;16.45;;
22646;SDS011;11490;42.726;23.268;2023-02-15T17:07:05;24.20;;;10.95;;
22646;SDS011;11490;42.726;23.268;2023-02-15T17:09:50;19.35;;;12.63;;
22646;SDS011;11490;42.726;23.268;2023-02-15T17:12:53;20.27;;;11.13;;
22646;SDS011;11490;42.726;23.268;2023-02-15T17:15:28;26.98;;;13.98;;
22646;SDS011;11490;42.726;23.268;2023-02-15T17:17:58;19.88;;;11.93;;
22646;SDS011;11490;42.726;23.268;2023-02-15T17:20:45;19.67;;;11.15;;
22646;SDS011;11490;42.726;23.268;2023-02-15T17:26:11;24.95;;;12.70;;
22646;SDS011;11490;42.726;23.268;2023-02-15T17:28:46;21.20;;;11.98;;
22646;SDS011;11490;42.726;23.268;2023-02-15T17:31:15;18.02;;;12.90;;
22646;SDS011;11490;42.726;23.268;2023-02-15T17:33:42;18.77;;;11.82;;
22646;SDS011;11490;42.726;23.268;2023-02-15T17:36:18;22.05;;;12.90;;
22646;SDS011;11490;42.726;23.268;2023-02-15T17:41:29;24.58;;;14.57;;
22646;SDS011;11490;42.726;23.268;2023-02-15T17:44:00;24.73;;;15.73;;
22646;SDS011;11490;42.726;23.268;2023-02-15T17:46:28;27.23;;;15.73;;
22646;SDS011;11490;42.726;23.268;2023-02-15T17:48:59;23.92;;;12.02;;
22646;SDS011;11490;42.726;23.268;2023-02-15T17:51:25;25.02;;;14.38;;
22646;SDS011;11490;42.726;23.268;2023-02-15T17:53:51;27.85;;;15.00;;
22646;SDS011;11490;42.726;23.268;2023-02-15T17:56:36;23.05;;;13.00;;
22646;SDS011;11490;42.726;23.268;2023-02-15T17:59:02;20.88;;;12.57;;
22646;SDS011;11490;42.726;23.268;2023-02-15T18:01:32;27.77;;;15.75;;
22646;SDS011;11490;42.726;23.268;2023-02-15T18:04:17;29.60;;;16.60;;
22646;SDS011;11490;42.726;23.268;2023-02-15T18:07:03;26.30;;;16.13;;
22646;SDS011;11490;42.726;23.268;2023-02-15T18:09:47;27.30;;;14.02;;
22646;SDS011;11490;42.726;23.268;2023-02-15T18:12:32;30.15;;;15.63;;
22646;SDS011;11490;42.726;23.268;2023-02-15T18:15:00;34.85;;;18.00;;
22646;SDS011;11490;42.726;23.268;2023-02-15T18:25:36;22.98;;;12.63;;
22646;SDS011;11490;42.726;23.268;2023-02-15T18:28:01;23.20;;;12.73;;
22646;SDS011;11490;42.726;23.268;2023-02-15T18:30:27;22.60;;;10.90;;
22646;SDS011;11490;42.726;23.268;2023-02-15T18:32:53;19.73;;;11.02;;
22646;SDS011;11490;42.726;23.268;2023-02-15T18:35:21;24.85;;;13.85;;
22646;SDS011;11490;42.726;23.268;2023-02-15T18:37:51;18.27;;;12.85;;
22646;SDS011;11490;42.726;23.268;2023-02-15T18:40:18;19.38;;;12.23;;
22646;SDS011;11490;42.726;23.268;2023-02-15T18:42:46;25.17;;;14.43;;
22646;SDS011;11490;42.726;23.268;2023-02-15T18:47:52;17.88;;;11.25;;
22646;SDS011;11490;42.726;23.268;2023-02-15T18:50:19;20.77;;;11.48;;
22646;SDS011;11490;42.726;23.268;2023-02-15T18:52:46;22.17;;;11.25;;
22646;SDS011;11490;42.726;23.268;2023-02-15T18:55:19;16.73;;;12.07;;
22646;SDS011;11490;42.726;23.268;2023-02-15T18:57:47;24.35;;;11.80;;
22646;SDS011;11490;42.726;23.268;2023-02-15T19:02:41;18.30;;;11.63;;
22646;SDS011;11490;42.726;23.268;2023-02-15T19:05:07;17.10;;;10.25;;
22646;SDS011;11490;42.726;23.268;2023-02-15T19:07:32;20.02;;;10.25;;
22646;SDS011;11490;42.726;23.268;2023-02-15T19:09:59;19.98;;;11.10;;
22646;SDS011;11490;42.726;23.268;2023-02-15T19:12:29;17.40;;;10.85;;
22646;SDS011;11490;42.726;23.268;2023-02-15T19:14:54;18.70;;;9.48;;
22646;SDS011;11490;42.726;23.268;2023-02-15T19:17:21;16.77;;;9.68;;
22646;SDS011;11490;42.726;23.268;2023-02-15T19:19:47;14.43;;;9.93;;
22646;SDS011;11490;42.726;23.268;2023-02-15T19:22:26;15.23;;;9.90;;
22646;SDS011;11490;42.726;23.268;2023-02-15T19:24:55;21.40;;;11.75;;
22646;SDS011;11490;42.726;23.268;2023-02-15T19:27:25;18.05;;;10.25;;
22646;SDS011;11490;42.726;23.268;2023-02-15T19:29:53;16.25;;;12.30;;
22646;SDS011;11490;42.726;23.268;2023-02-15T19:32:19;19.35;;;11.27;;
22646;SDS011;11490;42.726;23.268;2023-02-15T19:34:44;18.77;;;11.55;;
22646;SDS011;11490;42.726;23.268;2023-02-15T19:37:43;28.50;;;15.65;;
22646;SDS011;11490;42.726;23.268;2023-02-15T19:40:04;39.65;;;24.85;;
22646;SDS011;11490;42.726;23.268;2023-02-15T19:42:32;44.17;;;22.40;;
22646;SDS011;11490;42.726;23.268;2023-02-15T19:44:58;32.10;;;18.60;;
22646;SDS011;11490;42.726;23.268;2023-02-15T19:47:26;28.83;;;17.02;;
22646;SDS011;11490;42.726;23.268;2023-02-15T19:49:52;34.28;;;18.58;;
22646;SDS011;11490;42.726;23.268;2023-02-15T19:52:20;30.67;;;16.75;;
22646;SDS011;11490;42.726;23.268;2023-02-15T19:54:49;21.10;;;14.60;;
22646;SDS011;11490;42.726;23.268;2023-02-15T19:57:18;26.08;;;14.65;;
22646;SDS011;11490;42.726;23.268;2023-02-15T19:59:43;28.98;;;16.13;;
22646;SDS011;11490;42.726;23.268;2023-02-15T20:02:13;26.73;;;15.07;;
22646;SDS011;11490;42.726;23.268;2023-02-15T20:04:40;25.08;;;15.80;;
22646;SDS011;11490;42.726;23.268;2023-02-15T20:07:07;32.22;;;18.42;;
22646;SDS011;11490;42.726;23.268;2023-02-15T20:09:40;46.95;;;22.63;;
22646;SDS011;11490;42.726;23.268;2023-02-15T20:12:20;48.45;;;24.08;;
22646;SDS011;11490;42.726;23.268;2023-02-15T20:14:50;31.05;;;20.92;;
22646;SDS011;11490;42.726;23.268;2023-02-15T20:17:19;33.88;;;20.85;;
22646;SDS011;11490;42.726;23.268;2023-02-15T20:19:45;26.67;;;18.33;;
22646;SDS011;11490;42.726;23.268;2023-02-15T20:22:16;30.40;;;18.38;;
22646;SDS011;11490;42.726;23.268;2023-02-15T20:24:47;30.48;;;19.30;;
22646;SDS011;11490;42.726;23.268;2023-02-15T20:27:14;37.83;;;17.70;;
22646;SDS011;11490;42.726;23.268;2023-02-15T20:29:41;35.28;;;21.15;;
22646;SDS011;11490;42.726;23.268;2023-02-15T20:32:08;30.80;;;19.50;;
22646;SDS011;11490;42.726;23.268;2023-02-15T20:34:36;34.53;;;21.27;;
22646;SDS011;11490;42.726;23.268;2023-02-15T20:37:02;38.25;;;20.77;;
22646;SDS011;11490;42.726;23.268;2023-02-15T20:39:27;48.17;;;26.95;;
22646;SDS011;11490;42.726;23.268;2023-02-15T20:41:53;50.20;;;25.48;;
22646;SDS011;11490;42.726;23.268;2023-02-15T20:44:19;82.07;;;36.35;;
22646;SDS011;11490;42.726;23.268;2023-02-15T20:46:47;88.60;;;32.92;;
22646;SDS011;11490;42.726;23.268;2023-02-15T20:49:14;47.72;;;23.80;;
22646;SDS011;11490;42.726;23.268;2023-02-15T20:51:39;54.38;;;27.27;;
22646;SDS011;11490;42.726;23.268;2023-02-15T20:54:19;65.78;;;28.23;;
22646;SDS011;11490;42.726;23.268;2023-02-15T20:56:47;70.13;;;30.48;;
22646;SDS011;11490;42.726;23.268;2023-02-15T21:01:49;52.47;;;23.08;;
22646;SDS011;11490;42.726;23.268;2023-02-15T21:04:19;41.72;;;23.23;;
22646;SDS011;11490;42.726;23.268;2023-02-15T21:06:47;40.92;;;19.13;;
22646;SDS011;11490;42.726;23.268;2023-02-15T21:09:13;37.95;;;20.10;;
22646;SDS011;11490;42.726;23.268;2023-02-15T21:11:40;29.85;;;18.42;;
22646;SDS011;11490;42.726;23.268;2023-02-15T21:14:08;35.35;;;19.38;;
22646;SDS011;11490;42.726;23.268;2023-02-15T21:16:40;33.33;;;19.27;;
22646;SDS011;11490;42.726;23.268;2023-02-15T21:19:10;42.08;;;21.20;;
22646;SDS011;11490;42.726;23.268;2023-02-15T21:21:37;35.42;;;19.17;;
22646;SDS011;11490;42.726;23.268;2023-02-15T21:24:03;41.75;;;22.67;;
22646;SDS011;11490;42.726;23.268;2023-02-15T21:26:29;38.25;;;22.58;;
22646;SDS011;11490;42.726;23.268;2023-02-15T21:28:54;36.88;;;22.52;;
22646;SDS011;11490;42.726;23.268;2023-02-15T21:31:22;48.22;;;23.50;;
22646;SDS011;11490;42.726;23.268;2023-02-15T21:33:49;63.08;;;27.35;;
22646;SDS011;11490;42.726;23.268;2023-02-15T21:36:18;49.17;;;22.95;;
22646;SDS011;11490;42.726;23.268;2023-02-15T21:38:46;54.22;;;27.60;;
22646;SDS011;11490;42.726;23.268;2023-02-15T21:41:16;43.20;;;25.15;;
22646;SDS011;11490;42.726;23.268;2023-02-15T21:44:01;45.25;;;24.52;;
22646;SDS011;11490;42.726;23.268;2023-02-15T21:46:45;59.22;;;27.48;;
22646;SDS011;11490;42.726;23.268;2023-02-15T21:49:29;46.28;;;24.60;;
22646;SDS011;11490;42.726;23.268;2023-02-15T21:51:54;56.10;;;26.03;;
22646;SDS011;11490;42.726;23.268;2023-02-15T21:54:39;49.70;;;27.58;;
22646;SDS011;11490;42.726;23.268;2023-02-15T21:57:07;51.87;;;26.10;;
22646;SDS011;11490;42.726;23.268;2023-02-15T21:59:37;51.63;;;26.50;;
22646;SDS011;11490;42.726;23.268;2023-02-15T22:02:02;48.10;;;26.47;;
22646;SDS011;11490;42.726;23.268;2023-02-15T22:04:45;44.15;;;23.85;;
22646;SDS011;11490;42.726;23.268;2023-02-15T22:07:26;42.37;;;24.07;;
22646;SDS011;11490;42.726;23.268;2023-02-15T22:09:54;46.83;;;22.77;;
22646;SDS011;11490;42.726;23.268;2023-02-15T22:12:20;40.63;;;22.67;;
22646;SDS011;11490;42.726;23.268;2023-02-15T22:14:49;46.33;;;23.75;;
22646;SDS011;11490;42.726;23.268;2023-02-15T22:17:18;42.85;;;21.13;;
22646;SDS011;11490;42.726;23.268;2023-02-15T22:19:46;38.10;;;22.03;;
22646;SDS011;11490;42.726;23.268;2023-02-15T22:22:13;49.58;;;22.10;;
22646;SDS011;11490;42.726;23.268;2023-02-15T22:24:39;58.70;;;28.80;;
22646;SDS011;11490;42.726;23.268;2023-02-15T22:27:06;82.30;;;32.53;;
22646;SDS011;11490;42.726;23.268;2023-02-15T22:29:38;83.50;;;40.13;;
22646;SDS011;11490;42.726;23.268;2023-02-15T22:32:04;97.53;;;39.30;;
22646;SDS011;11490;42.726;23.268;2023-02-15T22:34:31;85.50;;;39.63;;
22646;SDS011;11490;42.726;23.268;2023-02-15T22:36:57;70.43;;;27.65;;
22646;SDS011;11490;42.726;23.268;2023-02-15T22:39:23;54.97;;;26.80;;
22646;SDS011;11490;42.726;23.268;2023-02-15T22:41:52;36.53;;;20.77;;
22646;SDS011;11490;42.726;23.268;2023-02-15T22:44:21;35.03;;;20.20;;
22646;SDS011;11490;42.726;23.268;2023-02-15T22:46:49;38.23;;;20.30;;
22646;SDS011;11490;42.726;23.268;2023-02-15T22:49:16;54.85;;;26.13;;
22646;SDS011;11490;42.726;23.268;2023-02-15T22:51:41;64.72;;;27.05;;
22646;SDS011;11490;42.726;23.268;2023-02-15T22:54:08;67.50;;;28.87;;
22646;SDS011;11490;42.726;23.268;2023-02-15T22:56:35;42.90;;;25.30;;
22646;SDS011;11490;42.726;23.268;2023-02-15T22:59:16;44.70;;;22.67;;
22646;SDS011;11490;42.726;23.268;2023-02-15T23:01:48;39.10;;;20.98;;
22646;SDS011;11490;42.726;23.268;2023-02-15T23:04:19;47.67;;;25.17;;
22646;SDS011;11490;42.726;23.268;2023-02-15T23:06:46;52.23;;;24.23;;
22646;SDS011;11490;42.726;23.268;2023-02-15T23:09:12;43.30;;;24.60;;
22646;SDS011;11490;42.726;23.268;2023-02-15T23:11:38;38.53;;;20.90;;
22646;SDS011;11490;42.726;23.268;2023-02-15T23:14:04;41.03;;;21.03;;
22646;SDS011;11490;42.726;23.268;2023-02-15T23:16:30;44.10;;;23.63;;
22646;SDS011;11490;42.726;23.268;2023-02-15T23:18:56;39.13;;;19.90;;
22646;SDS011;11490;42.726;23.268;2023-02-15T23:21:22;42.93;;;21.93;;
22646;SDS011;11490;42.726;23.268;2023-02-15T23:23:54;37.15;;;19.70;;
22646;SDS011;11490;42.726;23.268;2023-02-15T23:26:24;35.17;;;18.60;;
22646;SDS011;11490;42.726;23.268;2023-02-15T23:28:55;44.28;;;20.25;;
22646;SDS011;11490;42.726;23.268;2023-02-15T23:31:28;35.17;;;18.90;;
22646;SDS011;11490;42.726;23.268;2023-02-15T23:33:56;40.13;;;18.83;;
22646;SDS011;11490;42.726;23.268;2023-02-15T23:36:33;34.80;;;21.87;;
22646;SDS011;11490;42.726;23.268;2023-02-15T23:39:03;53.05;;;24.65;;
22646;SDS011;11490;42.726;23.268;2023-02-15T23:41:58;35.05;;;19.23;;
22646;SDS011;11490;42.726;23.268;2023-02-15T23:44:25;44.22;;;21.88;;